createdAt,value
2022-08-17T00:00:00.512Z,60.52
2022-08-17T00:02:27.568Z,60.11
2022-08-17T00:04:55.538Z,59.62
2022-08-17T00:07:23.430Z,59.45
2022-08-17T00:09:50.492Z,59.06
2022-08-17T00:12:43.446Z,59.05
2022-08-17T00:15:06.378Z,59.14
2022-08-17T00:17:37.453Z,59.86
2022-08-17T00:20:05.098Z,60.83
2022-08-17T00:22:46.686Z,61.78
2022-08-17T00:25:20.093Z,60.94
2022-08-17T00:27:46.915Z,60.64
2022-08-17T00:30:14.396Z,60.14
2022-08-17T00:33:23.097Z,60.22
2022-08-17T00:35:34.497Z,59.84
2022-08-17T00:38:01.177Z,60.61
2022-08-17T00:40:40.784Z,61.42
2022-08-17T00:43:20.093Z,62.50
2022-08-17T00:45:47.771Z,63.44
2022-08-17T00:48:28.932Z,65.04
2022-08-17T00:51:02.365Z,65.16
2022-08-17T00:53:31.668Z,63.18
2022-08-17T00:56:05.101Z,63.20
2022-08-17T00:58:36.633Z,63.98
2022-08-17T01:01:06.764Z,64.01
2022-08-17T01:03:35.850Z,63.21
2022-08-17T01:06:04.578Z,62.77
2022-08-17T01:08:32.959Z,63.60
2022-08-17T01:11:04.165Z,62.62
2022-08-17T01:13:43.368Z,62.05
2022-08-17T01:16:30.525Z,61.38
2022-08-17T01:19:01.187Z,61.51
2022-08-17T01:21:27.999Z,61.07
2022-08-17T01:23:55.678Z,61.12
2022-08-17T01:26:23.308Z,61.34
2022-08-17T01:28:55.084Z,61.35
2022-08-17T01:31:23.951Z,61.43
2022-08-17T01:33:51.096Z,62.42
2022-08-17T01:36:18.362Z,62.52
2022-08-17T01:38:45.328Z,62.67
2022-08-17T01:41:16.627Z,63.38
2022-08-17T01:43:52.115Z,62.84
2022-08-17T01:46:23.452Z,62.29
2022-08-17T01:48:51.319Z,62.06
2022-08-17T01:51:19.308Z,61.78
2022-08-17T01:53:52.615Z,61.06
2022-08-17T01:56:22.658Z,61.02
2022-08-17T01:58:49.411Z,62.41
2022-08-17T02:01:19.183Z,62.59
2022-08-17T02:03:53.337Z,62.43
2022-08-17T02:06:31.605Z,63.79
2022-08-17T02:09:17.040Z,63.71
2022-08-17T02:11:45.252Z,63.23
2022-08-17T02:14:13.530Z,62.58
2022-08-17T02:16:41.071Z,63.49
2022-08-17T02:19:11.314Z,63.22
2022-08-17T02:21:39.520Z,63.22
2022-08-17T02:24:11.096Z,63.69
2022-08-17T02:26:37.968Z,63.65
2022-08-17T02:29:04.944Z,62.76
2022-08-17T02:31:31.780Z,62.37
2022-08-17T02:34:03.896Z,62.14
2022-08-17T02:36:35.785Z,61.57
2022-08-17T02:39:04.665Z,61.38
2022-08-17T02:41:31.573Z,61.83
2022-08-17T02:43:58.843Z,61.74
2022-08-17T02:46:26.333Z,61.70
2022-08-17T02:48:53.028Z,62.20
2022-08-17T02:51:20.196Z,62.92
2022-08-17T02:53:47.289Z,61.81
2022-08-17T02:56:14.199Z,61.76
2022-08-17T02:58:41.071Z,61.46
2022-08-17T03:01:10.071Z,61.63
2022-08-17T03:03:37.890Z,61.38
2022-08-17T03:06:05.450Z,61.62
2022-08-17T03:08:32.296Z,61.60
2022-08-17T03:10:59.075Z,62.16
2022-08-17T03:13:27.666Z,62.01
2022-08-17T03:15:54.555Z,61.95
2022-08-17T03:18:25.264Z,62.19
2022-08-17T03:21:00.649Z,61.25
2022-08-17T03:23:29.638Z,61.15
2022-08-17T03:25:56.865Z,61.37
2022-08-17T03:28:24.903Z,61.45
2022-08-17T03:30:52.700Z,60.84
2022-08-17T03:33:19.569Z,61.07
2022-08-17T03:35:47.056Z,61.01
2022-08-17T03:38:16.008Z,61.26
2022-08-17T03:40:56.625Z,60.68
2022-08-17T03:43:30.686Z,61.23
2022-08-17T03:46:33.815Z,62.62
2022-08-17T03:49:26.194Z,61.85
2022-08-17T03:52:15.777Z,62.28
2022-08-17T03:55:02.038Z,62.66
2022-08-17T03:57:29.307Z,62.21
2022-08-17T03:59:57.342Z,62.00
2022-08-17T04:02:25.773Z,61.67
2022-08-17T04:04:53.953Z,62.10
2022-08-17T04:07:23.052Z,62.93
2022-08-17T04:09:50.798Z,63.54
2022-08-17T04:12:20.117Z,65.07
2022-08-17T04:14:53.146Z,66.99
2022-08-17T04:17:26.587Z,67.20
2022-08-17T04:19:54.489Z,64.62
2022-08-17T04:22:32.869Z,61.89
2022-08-17T04:25:09.915Z,59.86
2022-08-17T04:27:36.759Z,56.83
2022-08-17T04:30:06.037Z,54.63
2022-08-17T04:33:04.018Z,52.31
2022-08-17T04:35:23.901Z,51.09
2022-08-17T04:37:51.718Z,50.07
2022-08-17T04:40:38.080Z,48.18
2022-08-17T04:43:18.648Z,46.52
2022-08-17T04:45:57.871Z,44.73
2022-08-17T04:48:36.706Z,44.04
2022-08-17T04:51:09.926Z,43.31
2022-08-17T04:53:37.677Z,41.82
2022-08-17T04:56:05.323Z,41.35
2022-08-17T04:58:32.199Z,42.67
2022-08-17T05:00:59.020Z,42.58
2022-08-17T05:03:26.200Z,40.81
2022-08-17T05:05:53.818Z,41.26
2022-08-17T05:08:22.006Z,40.02
2022-08-17T05:10:49.217Z,40.46
2022-08-17T05:13:24.889Z,38.76
2022-08-17T05:15:56.741Z,36.99
2022-08-17T05:18:24.683Z,37.36
2022-08-17T05:20:52.485Z,37.99
2022-08-17T05:23:21.641Z,37.33
2022-08-17T05:25:51.586Z,37.33
2022-08-17T05:28:24.147Z,35.44
2022-08-17T05:30:56.935Z,34.37
2022-08-17T05:33:27.618Z,34.02
2022-08-17T05:35:56.606Z,33.78
2022-08-17T05:38:25.614Z,35.17
2022-08-17T05:40:53.765Z,35.34
2022-08-17T05:43:22.382Z,35.08
2022-08-17T05:45:56.468Z,36.06
2022-08-17T05:48:35.689Z,36.60
2022-08-17T05:51:15.634Z,36.85
2022-08-17T05:53:48.144Z,36.54
2022-08-17T05:56:34.742Z,38.02
2022-08-17T05:59:27.183Z,37.15
2022-08-17T06:02:26.713Z,36.37
2022-08-17T06:05:05.419Z,36.21
2022-08-17T06:07:46.269Z,37.11
2022-08-17T06:10:34.320Z,37.83
2022-08-17T06:13:12.922Z,36.55
2022-08-17T06:16:33.794Z,36.67
2022-08-17T06:19:21.868Z,36.59
2022-08-17T06:21:53.087Z,37.09
2022-08-17T06:24:35.458Z,35.18
2022-08-17T06:27:13.568Z,34.75
2022-08-17T06:29:58.247Z,36.42
2022-08-17T06:32:25.779Z,36.54
2022-08-17T06:34:52.985Z,36.93
2022-08-17T06:37:48.937Z,36.42
2022-08-17T06:40:45.948Z,36.49
2022-08-17T06:43:34.223Z,40.25
2022-08-17T06:46:11.554Z,42.92
2022-08-17T06:49:08.282Z,41.07
2022-08-17T06:51:40.741Z,40.11
2022-08-17T06:54:19.740Z,40.08
2022-08-17T06:56:57.503Z,39.19
2022-08-17T06:59:55.373Z,38.33
2022-08-17T07:03:01.704Z,38.73
2022-08-17T07:05:44.708Z,38.08
2022-08-17T07:08:42.843Z,37.97
2022-08-17T07:11:26.306Z,38.99
2022-08-17T07:14:18.537Z,38.30
2022-08-17T07:16:50.888Z,35.26
2022-08-17T07:19:22.690Z,34.13
2022-08-17T07:22:24.987Z,33.21
2022-08-17T07:25:05.586Z,34.62
2022-08-17T07:27:40.792Z,30.33
2022-08-17T07:30:17.880Z,31.60
2022-08-17T07:32:53.987Z,30.21
2022-08-17T07:35:40.719Z,29.10
2022-08-17T07:38:28.746Z,28.18
2022-08-17T07:41:02.316Z,27.80
2022-08-17T07:43:39.698Z,26.34
2022-08-17T07:46:24.735Z,26.36
2022-08-17T07:48:54.924Z,27.68
2022-08-17T07:51:25.362Z,26.26
2022-08-17T07:54:12.905Z,26.78
2022-08-17T07:56:47.152Z,25.52
2022-08-17T07:59:23.307Z,27.11
2022-08-17T08:01:57.521Z,25.10
2022-08-17T08:05:06.628Z,27.14
2022-08-17T08:07:42.682Z,25.56
2022-08-17T08:10:16.971Z,25.92
2022-08-17T08:12:52.779Z,26.47
2022-08-17T08:15:25.895Z,26.01
2022-08-17T08:18:01.616Z,25.39
2022-08-17T08:21:08.966Z,25.94
2022-08-17T08:24:14.525Z,26.50
2022-08-17T08:26:58.472Z,26.40
2022-08-17T08:29:51.040Z,27.66
2022-08-17T08:32:51.977Z,26.58
2022-08-17T08:35:54.062Z,26.60
2022-08-17T08:38:42.779Z,27.33
2022-08-17T08:41:27.996Z,26.78
2022-08-17T08:44:16.455Z,29.76
2022-08-17T08:46:59.986Z,25.83
2022-08-17T08:50:01.393Z,27.95
2022-08-17T08:52:21.819Z,26.13
2022-08-17T08:54:57.043Z,25.64
2022-08-17T08:57:34.561Z,26.22
2022-08-17T09:00:04.912Z,23.94
2022-08-17T09:02:37.979Z,23.79
2022-08-17T09:05:22.910Z,23.83
2022-08-17T09:08:11.283Z,22.81
2022-08-17T09:11:12.855Z,21.33
2022-08-17T09:14:01.789Z,19.64
2022-08-17T09:16:36.180Z,19.27
2022-08-17T09:19:33.439Z,20.82
2022-08-17T09:22:31.729Z,20.66
2022-08-17T09:25:13.830Z,20.91
2022-08-17T09:28:16.803Z,19.25
2022-08-17T09:30:55.653Z,19.67
2022-08-17T09:33:27.216Z,17.42
2022-08-17T09:36:10.267Z,18.47
2022-08-17T09:38:58.280Z,22.36
2022-08-17T09:41:49.132Z,20.94
2022-08-17T09:44:46.006Z,20.98
2022-08-17T09:47:45.671Z,22.12
2022-08-17T09:51:05.423Z,21.39
2022-08-17T09:53:12.473Z,19.74
2022-08-17T09:56:14.787Z,19.98
2022-08-17T09:59:16.987Z,19.15
2022-08-17T10:01:56.780Z,18.76
2022-08-17T10:04:39.853Z,18.45
2022-08-17T10:07:19.076Z,18.74
2022-08-17T10:09:56.949Z,19.70
2022-08-17T10:12:47.101Z,19.30
2022-08-17T10:15:37.489Z,18.17
2022-08-17T10:18:37.842Z,18.80
2022-08-17T10:21:30.297Z,18.79
2022-08-17T10:24:36.500Z,20.04
2022-08-17T10:27:08.549Z,20.02
2022-08-17T10:29:48.499Z,21.50
2022-08-17T10:33:00.864Z,20.19
2022-08-17T10:36:10.650Z,21.46
2022-08-17T10:39:00.441Z,22.28
2022-08-17T10:41:49.624Z,19.64
2022-08-17T10:44:45.769Z,18.12
2022-08-17T10:47:16.440Z,17.90
2022-08-17T10:49:54.239Z,19.92
2022-08-17T10:52:22.022Z,20.51
2022-08-17T10:54:51.798Z,20.52
2022-08-17T10:57:34.466Z,18.79
2022-08-17T11:00:14.952Z,18.20
2022-08-17T11:02:53.683Z,18.74
2022-08-17T11:05:29.601Z,16.88
2022-08-17T11:08:27.350Z,17.05
2022-08-17T11:11:09.654Z,17.45
2022-08-17T11:13:46.183Z,18.59
2022-08-17T11:16:50.444Z,18.65
2022-08-17T11:19:26.668Z,20.16
2022-08-17T11:22:33.573Z,19.21
2022-08-17T11:25:20.558Z,20.76
2022-08-17T11:27:54.094Z,19.47
2022-08-17T11:30:48.594Z,19.35
2022-08-17T11:33:38.238Z,19.00
2022-08-17T11:36:37.927Z,19.78
2022-08-17T11:39:32.530Z,19.36
2022-08-17T11:42:08.553Z,18.69
2022-08-17T11:44:53.400Z,21.27
2022-08-17T11:48:26.708Z,19.55
2022-08-17T11:51:47.321Z,20.13
2022-08-17T11:54:39.518Z,20.18
2022-08-17T11:57:27.924Z,19.57
2022-08-17T11:59:59.050Z,20.31
2022-08-17T12:02:32.603Z,21.02
2022-08-17T12:05:14.686Z,22.67
2022-08-17T12:07:52.621Z,20.56
2022-08-17T12:10:30.644Z,21.60
2022-08-17T12:13:06.201Z,19.72
2022-08-17T12:15:39.532Z,19.71
2022-08-17T12:18:06.421Z,19.94
2022-08-17T12:20:40.240Z,20.27
2022-08-17T12:23:09.627Z,20.38
2022-08-17T12:25:39.951Z,18.11
2022-08-17T12:28:23.279Z,17.57
2022-08-17T12:30:52.023Z,18.21
2022-08-17T12:33:27.831Z,18.26
2022-08-17T12:36:15.734Z,17.55
2022-08-17T12:39:13.697Z,17.06
2022-08-17T12:41:47.392Z,17.15
2022-08-17T12:44:17.274Z,18.02
2022-08-17T12:47:09.828Z,18.32
2022-08-17T12:49:39.578Z,18.74
2022-08-17T12:52:13.746Z,18.32
2022-08-17T12:54:52.721Z,19.75
2022-08-17T12:57:31.437Z,18.01
2022-08-17T13:00:28.954Z,17.44
2022-08-17T13:02:58.599Z,17.71
2022-08-17T13:05:30.504Z,17.99
2022-08-17T13:07:59.927Z,16.53
2022-08-17T13:10:33.016Z,16.79
2022-08-17T13:13:05.436Z,15.66
2022-08-17T13:15:44.444Z,15.65
2022-08-17T13:18:49.851Z,15.86
2022-08-17T13:21:19.893Z,16.69
2022-08-17T13:24:01.906Z,15.83
2022-08-17T13:26:40.424Z,16.01
2022-08-17T13:29:16.697Z,14.89
2022-08-17T13:31:52.450Z,14.65
2022-08-17T13:34:26.975Z,14.53
2022-08-17T13:37:25.833Z,14.66
2022-08-17T13:39:54.821Z,14.36
2022-08-17T13:42:52.296Z,13.88
2022-08-17T13:45:36.578Z,16.11
2022-08-17T13:48:32.197Z,15.90
2022-08-17T13:50:59.738Z,15.90
2022-08-17T13:53:33.535Z,16.07
2022-08-17T13:56:37.027Z,14.77
2022-08-17T13:59:02.882Z,14.19
2022-08-17T14:01:37.024Z,16.45
2022-08-17T14:04:13.789Z,15.51
2022-08-17T14:06:58.082Z,16.38
2022-08-17T14:09:32.449Z,16.62
2022-08-17T14:12:04.334Z,16.26
2022-08-17T14:14:31.410Z,15.03
2022-08-17T14:16:58.335Z,16.02
2022-08-17T14:19:26.335Z,15.87
2022-08-17T14:21:56.705Z,15.67
2022-08-17T14:24:26.812Z,15.23
2022-08-17T14:26:53.955Z,15.25
2022-08-17T14:29:23.082Z,15.38
2022-08-17T14:31:54.268Z,14.63
2022-08-17T14:34:23.132Z,15.48
2022-08-17T14:36:50.358Z,15.09
2022-08-17T14:39:18.398Z,14.59
2022-08-17T14:41:45.575Z,15.16
2022-08-17T14:44:13.193Z,14.65
2022-08-17T14:46:41.984Z,14.51
2022-08-17T14:49:11.478Z,14.97
2022-08-17T14:51:39.729Z,14.80
2022-08-17T14:54:11.867Z,15.70
2022-08-17T14:57:22.220Z,15.71
2022-08-17T14:59:46.073Z,17.94
2022-08-17T15:02:13.504Z,17.48
2022-08-17T15:04:45.339Z,17.03
2022-08-17T15:07:12.545Z,17.41
2022-08-17T15:09:39.409Z,17.62
2022-08-17T15:12:06.782Z,17.36
2022-08-17T15:14:35.604Z,17.57
2022-08-17T15:17:03.880Z,18.04
2022-08-17T15:19:30.921Z,18.43
2022-08-17T15:21:57.787Z,18.92
2022-08-17T15:24:24.980Z,19.89
2022-08-17T15:26:52.075Z,19.49
2022-08-17T15:29:18.852Z,19.82
2022-08-17T15:31:45.820Z,21.13
2022-08-17T15:34:12.574Z,21.22
2022-08-17T15:36:43.861Z,20.99
2022-08-17T15:39:19.488Z,20.51
2022-08-17T15:41:47.564Z,20.51
2022-08-17T15:44:32.350Z,20.93
2022-08-17T15:47:02.080Z,20.97
2022-08-17T15:49:28.896Z,20.94
2022-08-17T15:51:56.023Z,21.13
2022-08-17T15:54:23.551Z,20.94
2022-08-17T15:56:50.630Z,20.88
2022-08-17T15:59:17.373Z,21.16
2022-08-17T16:03:04.658Z,21.20
2022-08-17T16:04:31.745Z,21.19
2022-08-17T16:06:59.793Z,21.44
2022-08-17T16:09:27.209Z,21.81
2022-08-17T16:11:56.320Z,22.32
2022-08-17T16:14:30.285Z,22.38
2022-08-17T16:17:01.139Z,22.33
2022-08-17T16:19:27.954Z,22.06
2022-08-17T16:21:54.911Z,22.30
2022-08-17T16:24:21.697Z,22.98
2022-08-17T16:26:48.893Z,23.21
2022-08-17T16:29:16.020Z,23.11
2022-08-17T16:31:43.459Z,22.94
2022-08-17T16:34:16.813Z,23.41
2022-08-17T16:36:55.636Z,23.29
2022-08-17T16:39:25.729Z,23.52
2022-08-17T16:41:52.710Z,23.60
2022-08-17T16:44:21.451Z,24.60
2022-08-17T16:46:49.073Z,24.57
2022-08-17T16:49:35.332Z,24.44
2022-08-17T16:52:04.461Z,24.29
2022-08-17T16:54:31.259Z,24.35
2022-08-17T16:56:58.176Z,25.05
2022-08-17T16:59:30.166Z,24.85
2022-08-17T17:02:05.014Z,24.56
2022-08-17T17:04:35.171Z,24.95
2022-08-17T17:07:40.025Z,25.13
2022-08-17T17:10:15.638Z,25.42
2022-08-17T17:13:02.899Z,25.72
2022-08-17T17:16:06.474Z,25.79
2022-08-17T17:18:53.270Z,26.57
2022-08-17T17:21:27.527Z,26.68
2022-08-17T17:24:04.038Z,27.52
2022-08-17T17:27:18.066Z,27.53
2022-08-17T17:29:59.005Z,27.42
2022-08-17T17:32:38.197Z,28.83
2022-08-17T17:35:25.433Z,30.51
2022-08-17T17:37:54.228Z,33.17
2022-08-17T17:40:29.371Z,32.93
2022-08-17T17:43:14.229Z,32.95
2022-08-17T17:45:58.636Z,33.24
2022-08-17T17:48:45.300Z,34.11
2022-08-17T17:52:06.681Z,34.71
2022-08-17T17:54:48.200Z,35.61
2022-08-17T17:57:33.025Z,36.04
2022-08-17T18:00:05.396Z,36.94
2022-08-17T18:02:54.947Z,36.85
2022-08-17T18:05:36.913Z,35.91
2022-08-17T18:08:33.830Z,34.57
2022-08-17T18:11:34.906Z,35.41
2022-08-17T18:14:14.509Z,36.16
2022-08-17T18:16:42.897Z,36.48
2022-08-17T18:19:15.859Z,37.13
2022-08-17T18:21:47.428Z,37.54
2022-08-17T18:24:14.472Z,37.84
2022-08-17T18:26:46.109Z,38.36
2022-08-17T18:29:31.725Z,38.09
2022-08-17T18:32:32.660Z,38.12
2022-08-17T18:35:27.852Z,37.31
2022-08-17T18:38:28.826Z,38.24
2022-08-17T18:41:02.396Z,38.44
2022-08-17T18:43:52.881Z,38.76
2022-08-17T18:46:37.757Z,39.26
2022-08-17T18:49:28.483Z,40.22
2022-08-17T18:52:10.952Z,40.83
2022-08-17T18:54:38.712Z,39.29
2022-08-17T18:57:07.852Z,39.72
2022-08-17T18:59:48.441Z,41.24
2022-08-17T19:02:29.708Z,41.57
2022-08-17T19:05:04.790Z,41.34
2022-08-17T19:07:42.251Z,41.57
2022-08-17T19:10:26.120Z,41.39
2022-08-17T19:13:00.890Z,40.79
2022-08-17T19:15:38.099Z,41.56
2022-08-17T19:18:15.832Z,41.44
2022-08-17T19:21:00.857Z,42.79
2022-08-17T19:23:36.768Z,43.12
2022-08-17T19:26:50.318Z,43.29
2022-08-17T19:29:02.491Z,43.74
2022-08-17T19:31:31.403Z,42.49
2022-08-17T19:34:00.772Z,42.08
2022-08-17T19:36:40.875Z,42.17
2022-08-17T19:39:22.709Z,43.14
2022-08-17T19:42:01.363Z,43.02
2022-08-17T19:45:16.322Z,42.75
2022-08-17T19:47:55.330Z,42.71
2022-08-17T19:50:41.392Z,43.38
2022-08-17T19:54:01.750Z,42.57
2022-08-17T19:56:31.892Z,42.65
2022-08-17T19:59:26.534Z,41.47
2022-08-17T20:02:01.421Z,44.48
2022-08-17T20:04:41.463Z,43.01
2022-08-17T20:07:20.213Z,42.98
2022-08-17T20:09:53.024Z,42.54
2022-08-17T20:12:28.434Z,42.58
2022-08-17T20:15:00.464Z,42.32
2022-08-17T20:17:34.579Z,42.82
2022-08-17T20:20:38.901Z,44.91
2022-08-17T20:23:32.938Z,47.94
2022-08-17T20:26:10.229Z,49.53
2022-08-17T20:28:39.331Z,49.69
2022-08-17T20:31:45.790Z,48.51
2022-08-17T20:34:33.772Z,49.01
2022-08-17T20:37:04.403Z,48.71
2022-08-17T20:39:39.547Z,48.38
2022-08-17T20:42:30.608Z,48.26
2022-08-17T20:45:21.625Z,48.48
2022-08-17T20:48:18.720Z,48.73
2022-08-17T20:50:45.539Z,47.77
2022-08-17T20:53:55.540Z,47.53
2022-08-17T20:56:44.417Z,47.88
2022-08-17T20:59:25.691Z,48.78
2022-08-17T21:02:19.348Z,48.10
2022-08-17T21:04:56.488Z,47.81
2022-08-17T21:07:42.761Z,49.06
2022-08-17T21:10:23.712Z,50.09
2022-08-17T21:13:08.461Z,50.39
2022-08-17T21:16:13.211Z,50.53
2022-08-17T21:19:23.847Z,50.85
2022-08-17T21:22:26.148Z,53.16
2022-08-17T21:25:11.539Z,50.46
2022-08-17T21:28:12.707Z,49.86
2022-08-17T21:30:39.517Z,50.18
2022-08-17T21:33:12.339Z,49.40
2022-08-17T21:35:54.044Z,49.47
2022-08-17T21:38:42.788Z,49.53
2022-08-17T21:41:28.662Z,50.23
2022-08-17T21:44:05.429Z,51.41
2022-08-17T21:46:37.765Z,52.81
2022-08-17T21:49:13.475Z,52.74
2022-08-17T21:51:50.563Z,52.47
2022-08-17T21:54:38.932Z,51.24
2022-08-17T21:57:15.040Z,51.49
2022-08-17T21:59:43.818Z,51.57
2022-08-17T22:02:24.082Z,50.68
2022-08-17T22:05:06.880Z,52.07
2022-08-17T22:07:38.867Z,52.67
2022-08-17T22:10:26.312Z,52.38
2022-08-17T22:13:06.214Z,52.54
2022-08-17T22:15:49.404Z,53.10
2022-08-17T22:18:27.787Z,53.74
2022-08-17T22:20:59.429Z,53.34
2022-08-17T22:23:57.253Z,53.27
2022-08-17T22:26:28.288Z,53.26
2022-08-17T22:28:59.091Z,52.91
2022-08-17T22:31:32.878Z,52.25
2022-08-17T22:34:02.396Z,53.52
2022-08-17T22:36:30.073Z,54.43
2022-08-17T22:39:09.700Z,54.42
2022-08-17T22:41:48.528Z,53.52
2022-08-17T22:44:24.438Z,53.32
2022-08-17T22:47:03.525Z,53.33
2022-08-17T22:49:53.557Z,53.37
2022-08-17T22:52:36.182Z,53.40
2022-08-17T22:55:32.645Z,54.20
2022-08-17T22:58:19.146Z,53.37
2022-08-17T23:00:48.942Z,54.32
2022-08-17T23:03:25.045Z,53.48
2022-08-17T23:06:10.569Z,53.10
2022-08-17T23:08:58.158Z,53.83
2022-08-17T23:11:36.646Z,54.08
2022-08-17T23:14:15.931Z,53.62
2022-08-17T23:16:42.887Z,52.45
2022-08-17T23:19:15.469Z,52.74
2022-08-17T23:21:46.551Z,53.05
2022-08-17T23:24:26.175Z,52.76
2022-08-17T23:26:54.678Z,53.63
2022-08-17T23:29:21.645Z,53.19
2022-08-17T23:31:50.646Z,52.98
2022-08-17T23:34:18.694Z,52.96
2022-08-17T23:36:52.271Z,54.48
2022-08-17T23:39:27.385Z,54.34
2022-08-17T23:41:57.251Z,53.60
2022-08-17T23:44:24.017Z,53.84
2022-08-17T23:46:52.101Z,54.34
2022-08-17T23:49:19.276Z,53.74
2022-08-17T23:51:48.533Z,54.34
2022-08-17T23:54:21.115Z,53.91
2022-08-17T23:56:47.946Z,54.95
2022-08-17T23:59:16.499Z,55.23
